Time;durP1;ratioP1;P1;durP2;ratioP2;P2;SDS_P1;SDS_P2;PMS_P1;PMS_P2;Temp;Humidity;BMP_temperature;BMP_pressure;BME280_temperature;BME280_humidity;BME280_pressure;Samples;Min_cycle;Max_cycle;Signal;HPM_P1;HPM_P2
2022/07/10 00:00:26;;;;;;;9.77;2.10;;;14.50;99.90;;;;;;5093198;28;20398;-81
2022/07/10 00:02:55;;;;;;;9.82;1.90;;;;;;;;;;5075753;28;20493;-81
2022/07/10 00:05:22;;;;;;;10.07;1.95;;;14.30;99.90;;;;;;5072297;28;20763;-81
2022/07/10 00:07:49;;;;;;;11.25;2.08;;;;;;;;;;5088081;28;20505;-82
2022/07/10 00:10:15;;;;;;;5.95;1.52;;;;;;;;;;5126609;27;20434;-82
2022/07/10 00:12:41;;;;;;;8.15;1.77;;;;;;;;;;5110327;28;20757;-82
2022/07/10 00:15:08;;;;;;;7.70;2.00;;;;;;;;;;5109947;28;20432;-82
2022/07/10 00:17:35;;;;;;;8.40;1.88;;;14.00;99.90;;;;;;5097164;28;20475;-82
2022/07/10 00:20:01;;;;;;;6.82;1.73;;;;;;;;;;5072725;28;20776;-82
2022/07/10 00:22:27;;;;;;;7.33;2.03;;;;;;;;;;5092934;28;20421;-82
2022/07/10 00:24:53;;;;;;;7.07;2.05;;;;;;;;;;5108738;28;20412;-81
2022/07/10 00:27:20;;;;;;;8.55;1.85;;;;;;;;;;5097307;28;20397;-81
2022/07/10 00:29:46;;;;;;;8.95;2.10;;;;;;;;;;5100297;28;20427;-81
2022/07/10 00:32:12;;;;;;;8.35;2.05;;;;;;;;;;5077680;28;20426;-81
2022/07/10 00:34:38;;;;;;;8.82;2.17;;;;;;;;;;5092330;28;20397;-81
2022/07/10 00:37:05;;;;;;;7.50;1.80;;;;;;;;;;5109312;27;20928;-81
2022/07/10 00:39:31;;;;;;;7.13;1.67;;;;;;;;;;5055760;28;20432;-81
2022/07/10 00:42:10;;;;;;;6.43;1.80;;;;;;;;;;5055247;28;20504;-81
2022/07/10 00:44:36;;;;;;;5.80;1.60;;;;;;;;;;5089088;28;20426;-82
2022/07/10 00:47:06;;;;;;;8.15;2.00;;;;;;;;;;5107509;28;20778;-82
2022/07/10 00:49:35;;;;;;;8.95;2.10;;;;;;;;;;5081481;28;20455;-82
2022/07/10 00:52:12;;;;;;;8.35;2.22;;;;;;;;;;5114700;27;20922;-82
2022/07/10 00:54:40;;;;;;;6.43;1.85;;;;;;;;;;5074000;28;20482;-82
2022/07/10 00:57:07;;;;;;;11.57;2.50;;;;;;;;;;5074857;28;20401;-82
2022/07/10 00:59:34;;;;;;;11.95;2.17;;;;;;;;;;5079911;28;20911;-83
2022/07/10 01:02:00;;;;;;;8.63;2.17;;;;;;;;;;5115153;27;20795;-82
2022/07/10 01:04:26;;;;;;;11.35;1.85;;;;;;;;;;5105025;28;20443;-81
2022/07/10 01:06:53;;;;;;;10.73;2.00;;;;;;;;;;5076745;28;20942;-81
2022/07/10 01:09:19;;;;;;;8.60;1.80;;;;;;;;;;5070901;28;20416;-81
2022/07/10 01:11:45;;;;;;;10.23;2.10;;;;;;;;;;5070889;28;20501;-81
2022/07/10 01:14:11;;;;;;;11.73;2.30;;;;;;;;;;5087477;28;20422;-81
2022/07/10 01:16:37;;;;;;;8.53;2.07;;;;;;;;;;5074786;28;20420;-81
2022/07/10 01:19:03;;;;;;;11.73;2.30;;;;;;;;;;5113307;27;20415;-81
2022/07/10 01:21:33;;;;;;;16.00;2.42;;;;;;;;;;5103925;28;20458;-81
2022/07/10 01:24:00;;;;;;;10.02;2.03;;;;;;;;;;5092738;28;20762;-81
2022/07/10 01:26:26;;;;;;;9.27;2.03;;;;;;;;;;5089421;28;20424;-81
2022/07/10 01:28:53;;;;;;;9.38;2.03;;;;;;;;;;5087911;28;20974;-81
2022/07/10 01:31:19;;;;;;;8.85;2.17;;;;;;;;;;5075891;28;20475;-80
2022/07/10 01:33:49;;;;;;;9.48;2.15;;;;;;;;;;5092539;28;20402;-81
2022/07/10 01:36:15;;;;;;;12.45;2.20;;;;;;;;;;5091125;28;20410;-81
2022/07/10 01:38:41;;;;;;;10.77;1.77;;;;;;;;;;5090884;28;20419;-81
2022/07/10 01:41:08;;;;;;;10.57;2.50;;;;;;;;;;5095887;28;20480;-81
2022/07/10 01:43:35;;;;;;;8.32;1.70;;;;;;;;;;5090546;28;20421;-81
2022/07/10 01:46:01;;;;;;;9.90;1.80;;;;;;;;;;5072807;28;20509;-81
2022/07/10 01:48:27;;;;;;;8.75;2.25;;;;;;;;;;5090769;28;20459;-81
2022/07/10 01:50:54;;;;;;;6.50;1.83;;;;;;;;;;5071929;28;20422;-81
2022/07/10 01:53:20;;;;;;;7.93;2.10;;;;;;;;;;5086982;28;20461;-81
2022/07/10 01:55:46;;;;;;;10.55;1.80;;;;;;;;;;5086981;28;20396;-81
2022/07/10 01:58:12;;;;;;;7.40;2.13;;;;;;;;;;5084018;28;20806;-81
2022/07/10 02:00:38;;;;;;;8.88;1.90;;;;;;;;;;5085643;28;20420;-81
2022/07/10 02:05:49;;;;;;;8.23;2.00;;;;;;;;;;5085039;28;20483;-81
2022/07/10 02:08:15;;;;;;;9.00;2.10;;;;;;;;;;5103346;28;20474;-81
2022/07/10 02:10:41;;;;;;;9.48;1.77;;;;;;;;;;5089091;28;20428;-81
2022/07/10 02:13:07;;;;;;;8.90;1.90;;;;;;;;;;5089095;28;20429;-81
2022/07/10 02:15:33;;;;;;;8.40;2.10;;;;;;;;;;5087886;28;20424;-81
2022/07/10 02:17:59;;;;;;;10.98;2.30;;;;;;;;;;5089941;28;20533;-81
2022/07/10 02:20:25;;;;;;;9.40;2.03;;;;;;;;;;5086907;28;20475;-81
2022/07/10 02:22:51;;;;;;;6.93;1.80;;;;;;;;;;5088199;28;20428;-81
2022/07/10 02:25:18;;;;;;;8.48;2.00;;;;;;;;;;5072733;28;20417;-81
2022/07/10 02:27:44;;;;;;;6.85;2.03;;;;;;;;;;5104568;28;20469;-81
2022/07/10 02:30:10;;;;;;;10.18;1.67;;;;;;;;;;5084103;28;20763;-81
2022/07/10 02:32:36;;;;;;;5.97;1.73;;;;;;;;;;5093680;28;20418;-81
2022/07/10 02:35:02;;;;;;;7.05;1.45;;;;;;;;;;5093699;28;20483;-82
2022/07/10 02:37:28;;;;;;;7.38;1.80;;;;;;;;;;5091824;28;20434;-82
2022/07/10 02:39:54;;;;;;;7.47;1.60;;;;;;;;;;5104882;28;20787;-81
2022/07/10 02:42:20;;;;;;;11.27;2.00;;;;;;;;;;5093040;28;20461;-81
2022/07/10 02:44:46;;;;;;;8.57;1.60;;;;;;;;;;5118905;27;20480;-81
2022/07/10 02:47:12;;;;;;;7.93;1.57;;;;;;;;;;5090395;28;20415;-81
2022/07/10 02:49:38;;;;;;;9.00;1.98;;;;;;;;;;5090195;28;20421;-81
2022/07/10 02:52:05;;;;;;;9.93;1.95;;;;;;;;;;5090409;28;20411;-81
2022/07/10 02:54:31;;;;;;;10.45;1.85;;;;;;;;;;5090513;28;20395;-80
2022/07/10 02:56:57;;;;;;;7.60;1.70;;;;;;;;;;5110791;28;20434;-80
2022/07/10 02:59:23;;;;;;;8.60;1.70;;;;;;;;;;5094893;28;20427;-80
2022/07/10 03:01:49;;;;;;;8.52;1.65;;;;;;;;;;5089749;28;20451;-81
2022/07/10 03:04:15;;;;;;;9.23;1.67;;;;;;;;;;5081469;28;20410;-81
2022/07/10 03:06:41;;;;;;;7.63;1.77;;;;;;;;;;5086610;28;20443;-81
2022/07/10 03:09:07;;;;;;;8.95;1.65;;;;;;;;;;5077535;28;20774;-81
2022/07/10 03:11:33;;;;;;;6.78;1.75;;;;;;;;;;5086487;28;20438;-81
2022/07/10 03:13:59;;;;;;;9.27;1.60;;;;;;;;;;5069082;28;20513;-81
2022/07/10 03:16:25;;;;;;;6.47;1.70;;;;;;;;;;5092740;28;20409;-81
2022/07/10 03:18:51;;;;;;;8.25;1.77;;;;;;;;;;5077595;28;20536;-82
2022/07/10 03:21:17;;;;;;;8.68;1.80;;;;;;;;;;5089996;28;20814;-81
2022/07/10 03:23:43;;;;;;;9.15;1.70;;;;;;;;;;5092688;28;20513;-81
2022/07/10 03:26:10;;;;;;;7.32;1.63;;;;;;;;;;5087930;28;20909;-80
2022/07/10 03:28:36;;;;;;;10.70;1.80;;;;;;;;;;5098424;28;20418;-80
2022/07/10 03:31:02;;;;;;;9.00;1.80;;;;;;;;;;5090481;28;20424;-81
2022/07/10 03:33:28;;;;;;;8.73;1.83;;;;;;;;;;5084865;28;20477;-80
2022/07/10 03:35:54;;;;;;;9.05;1.60;;;;;;;;;;5103796;28;20458;-81
2022/07/10 03:38:21;;;;;;;6.40;1.53;;;;;;;;;;5106839;28;20435;-80
2022/07/10 03:40:47;;;;;;;5.90;1.55;;;;;;;;;;5106432;28;20407;-80
2022/07/10 03:43:14;;;;;;;8.65;1.60;;;14.00;99.90;;;;;;5085961;28;20767;-80
2022/07/10 03:45:40;;;;;;;7.85;1.88;;;;;;;;;;5088173;28;20421;-80
2022/07/10 03:48:06;;;;;;;8.00;1.67;;;;;;;;;;5109893;28;20398;-80
2022/07/10 03:50:33;;;;;;;7.65;1.60;;;;;;;;;;5110160;28;20433;-80
2022/07/10 03:53:00;;;;;;;10.37;1.77;;;;;;;;;;5093618;28;20880;-80
2022/07/10 03:55:26;;;;;;;7.88;1.67;;;;;;;;;;5089694;28;20460;-80
2022/07/10 03:57:56;;;;;;;8.48;1.88;;;;;;;;;;5090447;28;20936;-80
2022/07/10 04:00:23;;;;;;;8.20;1.88;;;;;;;;;;5089372;28;20427;-80
2022/07/10 04:02:55;;;;;;;11.70;2.20;;;;;;;;;;5098202;28;20429;-80
2022/07/10 04:05:21;;;;;;;7.35;1.70;;;;;;;;;;5109707;28;20413;-80
2022/07/10 04:07:47;;;;;;;6.82;1.50;;;;;;;;;;5080687;28;20764;-80
2022/07/10 04:10:13;;;;;;;10.13;1.92;;;;;;;;;;5056180;28;20407;-80
2022/07/10 04:12:39;;;;;;;8.05;1.80;;;;;;;;;;5107734;27;20472;-80
2022/07/10 04:15:06;;;;;;;6.93;1.80;;;;;;;;;;5079657;28;20429;-81
2022/07/10 04:17:32;;;;;;;10.63;2.08;;;;;;;;;;5090833;28;20414;-81
2022/07/10 04:19:59;;;;;;;12.05;1.90;;;;;;;;;;5092237;28;20447;-81
2022/07/10 04:22:25;;;;;;;10.90;2.00;;;;;;;;;;5109368;28;20445;-81
2022/07/10 04:24:51;;;;;;;10.02;1.92;;;;;;;;;;5072519;28;20416;-81
2022/07/10 04:27:17;;;;;;;8.32;2.00;;;;;;;;;;5074497;28;20459;-81
2022/07/10 04:29:44;;;;;;;6.88;1.95;;;;;;;;;;5106041;28;20410;-81
2022/07/10 04:32:10;;;;;;;8.75;2.00;;;;;;;;;;5072134;28;20399;-81
2022/07/10 04:34:36;;;;;;;8.45;1.90;;;;;;;;;;5069037;28;20422;-80
2022/07/10 04:37:02;;;;;;;10.10;2.05;;;;;;;;;;5090289;28;20404;-80
2022/07/10 04:39:28;;;;;;;10.75;2.47;;;;;;;;;;5084192;28;21045;-80
2022/07/10 04:41:54;;;;;;;8.57;2.10;;;;;;;;;;5092081;28;20558;-80
2022/07/10 04:44:20;;;;;;;10.60;2.08;;;;;;;;;;5109084;28;20504;-80
2022/07/10 04:46:47;;;;;;;8.00;2.33;;;;;;;;;;5107915;28;20601;-80
2022/07/10 04:49:13;;;;;;;10.82;2.33;;;;;;;;;;5085045;28;20412;-80
2022/07/10 04:51:39;;;;;;;12.23;2.30;;;;;;;;;;5071181;28;20910;-81
2022/07/10 04:54:06;;;;;;;9.18;2.35;;;;;;;;;;5072066;28;20930;-80
2022/07/10 04:56:32;;;;;;;10.32;2.33;;;;;;;;;;5089640;28;20796;-81
2022/07/10 04:58:58;;;;;;;9.27;2.10;;;;;;;;;;5108600;27;20439;-81
2022/07/10 05:01:24;;;;;;;13.15;2.33;;;;;;;;;;5106810;28;20418;-81
2022/07/10 05:03:50;;;;;;;10.30;2.60;;;;;;;;;;5108389;28;20398;-81
2022/07/10 05:06:16;;;;;;;9.60;2.50;;;;;;;;;;5103690;28;20434;-81
2022/07/10 05:08:42;;;;;;;10.50;2.78;;;;;;;;;;5070892;28;20497;-80
2022/07/10 05:11:08;;;;;;;14.70;2.72;;;;;;;;;;5114073;27;20412;-81
2022/07/10 05:13:34;;;;;;;8.70;2.22;;;;;;;;;;5122561;27;20486;-81
2022/07/10 05:16:00;;;;;;;13.68;2.67;;;;;;;;;;5122229;27;20883;-81
2022/07/10 05:18:26;;;;;;;10.90;2.97;;;;;;;;;;5091193;28;20878;-81
2022/07/10 05:20:52;;;;;;;10.23;2.70;;;;;;;;;;5090736;28;20462;-81
2022/07/10 05:23:18;;;;;;;13.90;3.13;;;;;;;;;;5122332;27;20416;-81
2022/07/10 05:25:44;;;;;;;12.25;3.55;;;;;;;;;;5108416;28;20404;-81
2022/07/10 05:28:12;;;;;;;13.68;3.50;;;;;;;;;;5058440;28;20770;-82
2022/07/10 05:30:38;;;;;;;13.67;3.10;;;;;;;;;;5091157;28;20474;-82
2022/07/10 05:33:05;;;;;;;10.75;2.40;;;;;;;;;;5091003;28;20402;-82
2022/07/10 05:35:31;;;;;;;10.73;2.97;;;;;;;;;;5073457;28;20522;-82
2022/07/10 05:37:57;;;;;;;12.57;2.72;;;;;;;;;;5099683;28;20839;-81
2022/07/10 05:40:23;;;;;;;8.38;2.00;;;;;;;;;;5074062;28;20925;-81
2022/07/10 05:42:49;;;;;;;10.45;2.20;;;;;;;;;;5098254;28;20479;-81
2022/07/10 05:45:15;;;;;;;10.13;2.72;;;;;;;;;;5089600;28;20424;-81
2022/07/10 05:47:41;;;;;;;8.23;2.28;;;;;;;;;;5077864;28;20415;-81
2022/07/10 05:50:08;;;;;;;9.88;2.30;;;;;;;;;;5087428;28;20396;-81
2022/07/10 05:52:34;;;;;;;8.40;2.15;;;;;;;;;;5085131;28;20423;-81
2022/07/10 05:55:00;;;;;;;9.98;2.50;;;;;;;;;;5087415;28;20423;-81
2022/07/10 05:57:26;;;;;;;9.15;2.50;;;;;;;;;;5086108;28;20440;-81
2022/07/10 05:59:52;;;;;;;7.20;2.10;;;;;;;;;;5070774;28;20403;-81
2022/07/10 06:02:19;;;;;;;7.85;2.30;;;;;;;;;;5058419;28;20793;-81
2022/07/10 06:04:46;;;;;;;8.10;2.05;;;;;;;;;;5073891;28;20421;-82
2022/07/10 06:07:12;;;;;;;9.00;1.90;;;;;;;;;;5073279;28;20462;-82
2022/07/10 06:09:38;;;;;;;8.47;2.23;;;;;;;;;;5079356;28;20427;-82
2022/07/10 06:12:04;;;;;;;8.43;2.03;;;;;;;;;;5070790;28;20407;-82
2022/07/10 06:14:30;;;;;;;9.13;2.17;;;;;;;;;;5070938;28;20511;-82
2022/07/10 06:16:56;;;;;;;10.35;2.35;;;;;;;;;;5068531;28;20425;-81
2022/07/10 06:19:22;;;;;;;9.27;2.33;;;;;;;;;;5108146;28;20972;-82
2022/07/10 06:22:29;;;;;;;8.23;2.20;;;;;;;;;;5095445;28;20430;-81
2022/07/10 06:24:34;;;;;;;7.57;2.13;;;;;;;;;;5080369;28;20494;-81
2022/07/10 06:27:00;;;;;;;9.30;2.38;;;;;;;;;;5070716;28;20417;-80
2022/07/10 06:29:26;;;;;;;7.23;2.20;;;14.90;99.90;;;;;;5055776;28;20417;-78
2022/07/10 06:31:51;;;;;;;8.87;2.40;;;15.00;99.90;;;;;;5077915;28;20484;-78
2022/07/10 06:34:17;;;;;;;8.40;2.10;;;15.30;99.90;;;;;;5085800;28;20425;-77
2022/07/10 06:36:43;;;;;;;7.65;2.00;;;;;;;;;;5086960;28;20430;-76
2022/07/10 06:39:09;;;;;;;6.90;1.75;;;15.30;99.90;;;;;;5098379;28;20524;-77
2022/07/10 06:41:35;;;;;;;6.60;1.80;;;;;;;;;;5118587;28;21022;-77
2022/07/10 06:44:02;;;;;;;6.75;2.17;;;;;;;;;;5115093;28;20505;-77
2022/07/10 06:46:28;;;;;;;7.07;2.13;;;;;;;;;;5097520;28;20516;-77
2022/07/10 06:48:53;;;;;;;15.82;2.30;;;15.20;99.90;;;;;;5076134;28;20427;-76
2022/07/10 06:51:20;;;;;;;6.30;2.00;;;;;;;;;;5086234;28;20433;-77
2022/07/10 06:53:46;;;;;;;6.70;2.30;;;;;;;;;;5082869;28;20453;-76
2022/07/10 06:56:14;;;;;;;8.18;2.10;;;;;;;;;;5066566;28;20418;-77
2022/07/10 06:58:40;;;;;;;8.25;2.40;;;14.20;99.90;;;;;;5081929;28;20779;-77
2022/07/10 07:01:05;;;;;;;10.33;2.90;;;14.40;99.90;;;;;;5068983;28;20428;-76
2022/07/10 07:03:32;;;;;;;7.90;2.20;;;;;;;;;;5103099;28;20446;-77
2022/07/10 07:05:58;;;;;;;6.07;2.23;;;;;;;;;;5105602;28;20413;-76
2022/07/10 07:08:23;;;;;;;7.68;2.60;;;14.90;99.90;;;;;;5077968;28;20420;-76
2022/07/10 07:10:49;;;;;;;8.02;2.40;;;;;;;;;;5051719;28;20777;-77
2022/07/10 07:13:15;;;;;;;6.90;2.20;;;;;;;;;;5081852;28;20410;-76
2022/07/10 07:15:51;;;;;;;7.50;2.08;;;14.50;99.90;;;;;;5078806;28;20423;-76
2022/07/10 07:18:17;;;;;;;7.60;2.00;;;;;;;;;;5092304;28;20511;-76
2022/07/10 07:23:27;;;;;;;5.13;1.83;;;;;;;;;;5085912;28;20479;-77
2022/07/10 07:25:53;;;;;;;7.18;2.25;;;;;;;;;;5079595;28;20420;-77
2022/07/10 07:28:20;;;;;;;7.85;2.00;;;;;;;;;;5093359;28;20825;-77
2022/07/10 07:30:47;;;;;;;5.05;1.60;;;15.20;99.90;;;;;;5085171;28;20428;-77
2022/07/10 07:33:13;;;;;;;4.60;1.65;;;15.20;99.90;;;;;;5115992;27;20786;-77
2022/07/10 07:35:40;;;;;;;5.50;1.70;;;;;;;;;;5079286;28;20426;-78
2022/07/10 07:38:06;;;;;;;4.68;1.67;;;;;;;;;;5088398;28;20846;-78
2022/07/10 07:40:32;;;;;;;5.78;1.90;;;15.40;99.90;;;;;;5088047;28;20422;-78
2022/07/10 07:42:58;;;;;;;8.23;1.90;;;;;;;;;;5071556;28;20829;-78
2022/07/10 07:45:25;;;;;;;7.60;1.77;;;15.40;99.90;;;;;;5091247;28;20449;-78
2022/07/10 07:47:54;;;;;;;5.65;1.75;;;;;;;;;;5084374;28;20427;-78
2022/07/10 07:50:25;;;;;;;6.35;1.60;;;;;;;;;;5077615;28;20425;-77
2022/07/10 07:52:52;;;;;;;7.40;2.05;;;;;;;;;;5086305;28;20421;-78
2022/07/10 07:55:19;;;;;;;7.20;1.87;;;15.40;99.90;;;;;;5084470;28;20425;-77
2022/07/10 07:57:45;;;;;;;6.32;1.80;;;;;;;;;;5088083;28;20426;-78
2022/07/10 08:00:12;;;;;;;7.93;2.22;;;;;;;;;;5086548;28;20422;-77
2022/07/10 08:02:38;;;;;;;8.60;2.03;;;;;;;;;;5069885;28;20426;-80
2022/07/10 08:05:05;;;;;;;6.78;2.17;;;;;;;;;;5118129;27;20467;-81
2022/07/10 08:07:42;;;;;;;9.93;2.38;;;14.80;99.90;;;;;;5096930;28;20427;-81
2022/07/10 08:10:12;;;;;;;8.52;2.33;;;14.40;99.90;;;;;;5083435;28;20425;-81
2022/07/10 08:12:39;;;;;;;8.23;2.72;;;;;;;;;;5074365;28;20576;-80
2022/07/10 08:15:07;;;;;;;6.30;2.22;;;;;;;;;;5091101;28;20442;-79
2022/07/10 08:17:33;;;;;;;8.60;2.50;;;;;;;;;;5095502;28;20424;-80
2022/07/10 08:19:59;;;;;;;8.60;2.57;;;;;;;;;;5089013;28;20527;-79
2022/07/10 08:22:25;;;;;;;8.82;2.70;;;;;;;;;;5084438;28;20471;-79
2022/07/10 08:24:51;;;;;;;8.98;2.72;;;;;;;;;;5073435;28;20424;-78
2022/07/10 08:27:17;;;;;;;9.50;2.75;;;;;;;;;;5075611;28;20417;-78
2022/07/10 08:29:43;;;;;;;10.02;3.10;;;;;;;;;;5098564;28;20579;-79
2022/07/10 08:32:09;;;;;;;9.68;3.22;;;;;;;;;;5077779;28;20455;-79
2022/07/10 08:34:36;;;;;;;13.63;3.90;;;;;;;;;;5108395;27;20427;-78
2022/07/10 08:37:02;;;;;;;10.05;3.58;;;;;;;;;;5077219;28;20505;-78
2022/07/10 08:39:28;;;;;;;10.07;3.33;;;;;;;;;;5095802;28;20509;-78
2022/07/10 08:41:55;;;;;;;8.85;3.00;;;;;;;;;;5060665;28;20739;-78
2022/07/10 08:44:21;;;;;;;8.38;2.70;;;;;;;;;;5095812;27;20436;-79
2022/07/10 08:46:47;;;;;;;9.73;2.83;;;;;;;;;;5073690;28;20422;-78
2022/07/10 08:49:13;;;;;;;9.32;3.13;;;;;;;;;;5106596;27;20435;-77
2022/07/10 08:51:59;;;;;;;11.10;3.15;;;15.10;99.90;;;;;;5088915;28;20427;-79
2022/07/10 08:54:28;;;;;;;10.00;3.33;;;;;;;;;;5087651;27;20921;-78
2022/07/10 08:56:54;;;;;;;11.17;3.13;;;;;;;;;;5085051;28;20407;-78
2022/07/10 08:59:22;;;;;;;10.63;3.10;;;15.20;99.90;;;;;;5085606;28;20422;-78
2022/07/10 09:01:49;;;;;;;12.95;3.60;;;;;;;;;;5105823;27;20423;-78
2022/07/10 09:04:19;;;;;;;11.05;3.60;;;;;;;;;;5076521;28;20940;-78
2022/07/10 09:06:45;;;;;;;9.77;3.50;;;;;;;;;;5087248;27;20916;-78
2022/07/10 09:09:11;;;;;;;8.90;3.57;;;;;;;;;;5076104;28;20440;-79
2022/07/10 09:11:42;;;;;;;11.50;3.70;;;15.20;99.90;;;;;;5082931;28;20435;-78
2022/07/10 09:14:12;;;;;;;11.23;3.45;;;;;;;;;;5100422;28;20956;-78
2022/07/10 09:16:40;;;;;;;11.77;3.30;;;;;;;;;;5110788;27;20481;-79
2022/07/10 09:19:19;;;;;;;11.63;3.83;;;14.90;99.90;;;;;;5075338;28;20403;-79
2022/07/10 09:21:46;;;;;;;11.93;4.35;;;;;;;;;;5108638;27;20459;-79
2022/07/10 09:24:12;;;;;;;11.27;3.90;;;;;;;;;;5079267;28;20437;-79
2022/07/10 09:26:40;;;;;;;11.80;3.90;;;15.00;99.90;;;;;;5095510;28;20799;-79
2022/07/10 09:29:10;;;;;;;10.45;3.80;;;;;;;;;;5107214;27;20453;-79
2022/07/10 09:31:55;;;;;;;10.48;3.03;;;15.10;99.90;;;;;;5110470;27;20394;-80
2022/07/10 09:34:38;;;;;;;9.13;3.35;;;;;;;;;;5059257;28;20407;-79
2022/07/10 09:37:19;;;;;;;9.45;3.22;;;;;;;;;;5074483;28;20914;-79
2022/07/10 09:39:52;;;;;;;12.88;3.40;;;;;;;;;;5107335;27;20959;-79
2022/07/10 09:42:33;;;;;;;8.85;3.03;;;;;;;;;;5109517;27;20419;-79
2022/07/10 09:45:12;;;;;;;6.93;3.08;;;;;;;;;;5074344;28;20471;-80
2022/07/10 09:47:45;;;;;;;8.98;3.13;;;;;;;;;;5075066;28;20424;-80
2022/07/10 09:50:29;;;;;;;8.25;2.97;;;;;;;;;;5109882;27;20496;-80
2022/07/10 09:52:58;;;;;;;8.55;3.00;;;;;;;;;;5074237;28;20483;-81
2022/07/10 09:55:29;;;;;;;11.05;3.45;;;;;;;;;;5074983;28;21135;-81
2022/07/10 09:57:56;;;;;;;8.48;3.40;;;;;;;;;;5107732;27;20467;-80
2022/07/10 10:00:27;;;;;;;8.20;3.25;;;;;;;;;;5077916;28;20462;-79
2022/07/10 10:02:57;;;;;;;11.52;3.28;;;;;;;;;;5073222;28;20522;-80
2022/07/10 10:05:35;;;;;;;8.38;2.78;;;;;;;;;;5077666;28;20723;-80
2022/07/10 10:08:04;;;;;;;10.35;3.30;;;;;;;;;;5075918;28;20394;-80
2022/07/10 10:10:32;;;;;;;9.35;2.90;;;;;;;;;;5096783;28;20422;-79
2022/07/10 10:13:01;;;;;;;8.30;3.07;;;15.20;99.90;;;;;;5095246;28;20762;-79
2022/07/10 10:15:27;;;;;;;9.90;3.38;;;;;;;;;;5073215;28;20439;-80
2022/07/10 10:17:54;;;;;;;8.35;3.05;;;;;;;;;;5072152;28;20442;-81
2022/07/10 10:20:41;;;;;;;11.15;3.33;;;;;;;;;;5084940;28;20434;-79
2022/07/10 10:23:17;;;;;;;8.43;3.70;;;;;;;;;;5099776;28;20431;-80
2022/07/10 10:25:43;;;;;;;12.40;3.67;;;;;;;;;;5110519;28;20873;-79
2022/07/10 10:28:11;;;;;;;9.40;3.38;;;15.80;99.90;;;;;;5102241;28;20501;-79
2022/07/10 10:30:45;;;;;;;10.68;3.65;;;;;;;;;;5101012;28;20423;-79
2022/07/10 10:33:30;;;;;;;9.55;2.70;;;;;;;;;;5069284;28;20432;-79
2022/07/10 10:35:56;;;;;;;11.85;2.85;;;;;;;;;;5067082;28;20480;-76
2022/07/10 10:38:22;;;;;;;8.95;2.60;;;;;;;;;;5084401;28;21122;-79
2022/07/10 10:40:49;;;;;;;7.20;2.70;;;;;;;;;;5079127;28;20558;-79
2022/07/10 10:43:19;;;;;;;11.93;2.65;;;16.40;99.90;;;;;;5083427;28;20431;-77
2022/07/10 10:45:46;;;;;;;6.90;2.63;;;;;;;;;;5073860;28;20434;-77
2022/07/10 10:48:22;;;;;;;9.93;2.30;;;;;;;;;;5098530;28;20498;-77
2022/07/10 10:50:50;;;;;;;8.47;2.10;;;16.70;99.90;;;;;;5072463;28;20501;-76
2022/07/10 10:53:27;;;;;;;6.53;2.42;;;16.80;99.90;;;;;;5069709;28;20687;-77
2022/07/10 10:56:07;;;;;;;7.80;2.22;;;;;;;;;;5085430;28;21171;-79
2022/07/10 10:58:41;;;;;;;9.00;2.53;;;16.90;99.90;;;;;;5105875;27;20446;-79
2022/07/10 11:01:23;;;;;;;8.20;2.40;;;;;;;;;;5093214;28;20996;-79
2022/07/10 11:04:04;;;;;;;9.20;2.80;;;;;;;;;;5099149;27;20430;-79
2022/07/10 11:06:42;;;;;;;7.22;2.30;;;;;;;;;;5098778;28;20405;-80
2022/07/10 11:09:34;;;;;;;5.78;2.45;;;16.90;99.90;;;;;;5084517;28;20499;-80
2022/07/10 11:12:04;;;;;;;6.00;2.10;;;;;;;;;;5042535;28;20433;-80
2022/07/10 11:14:31;;;;;;;8.73;2.72;;;;;;;;;;5108613;28;20444;-80
2022/07/10 11:16:57;;;;;;;5.72;2.20;;;;;;;;;;5082350;28;20763;-79
2022/07/10 11:19:24;;;;;;;5.78;2.08;;;16.20;99.90;;;;;;5127561;27;20400;-80
2022/07/10 11:21:55;;;;;;;7.63;2.72;;;;;;;;;;5093160;28;20489;-80
2022/07/10 11:24:59;;;;;;;6.35;2.72;;;15.80;99.90;;;;;;5092536;28;20481;-80
2022/07/10 11:27:30;;;;;;;10.38;3.53;;;;;;;;;;5067729;28;20420;-80
2022/07/10 11:30:00;;;;;;;6.53;2.92;;;;;;;;;;5106682;27;20423;-76
2022/07/10 11:32:26;;;;;;;6.95;3.13;;;;;;;;;;5079879;28;20946;-76
2022/07/10 11:34:52;;;;;;;8.70;3.35;;;;;;;;;;5093324;28;20469;-76
2022/07/10 11:37:18;;;;;;;8.87;3.30;;;15.80;99.90;;;;;;5084707;28;20401;-76
2022/07/10 11:39:44;;;;;;;8.50;3.47;;;;;;;;;;5070824;28;22202;-76
2022/07/10 11:42:10;;;;;;;10.98;3.28;;;;;;;;;;5058338;28;20432;-77
2022/07/10 11:44:36;;;;;;;13.45;3.50;;;;;;;;;;5107787;27;20430;-76
2022/07/10 11:47:03;;;;;;;9.77;3.80;;;16.10;99.90;;;;;;5079117;28;20427;-76
2022/07/10 11:49:30;;;;;;;9.00;3.40;;;;;;;;;;5092722;28;20419;-80
2022/07/10 11:52:04;;;;;;;8.55;3.40;;;15.80;99.90;;;;;;5084669;28;20418;-80
2022/07/10 11:54:30;;;;;;;11.75;3.90;;;;;;;;;;5107079;27;20475;-80
2022/07/10 11:56:56;;;;;;;10.07;3.85;;;;;;;;;;5092417;28;20455;-80
2022/07/10 11:59:27;;;;;;;10.90;3.88;;;15.90;99.90;;;;;;5076335;28;20427;-80
2022/07/10 12:01:53;;;;;;;10.32;3.60;;;;;;;;;;5106069;28;20422;-79
2022/07/10 12:04:26;;;;;;;8.27;3.10;;;;;;;;;;5088203;28;20446;-80
2022/07/10 12:06:53;;;;;;;6.57;3.10;;;;;;;;;;5092568;28;20402;-80
2022/07/10 12:09:20;;;;;;;8.60;2.83;;;16.10;99.90;;;;;;5085816;28;20427;-80
2022/07/10 12:12:03;;;;;;;6.95;2.83;;;16.20;99.90;;;;;;5104834;27;20465;-79
2022/07/10 12:14:29;;;;;;;7.25;2.38;;;16.20;99.90;;;;;;5089925;28;20949;-78
2022/07/10 12:16:56;;;;;;;7.05;2.35;;;;;;;;;;5109050;27;20437;-78
2022/07/10 12:19:37;;;;;;;7.30;2.35;;;16.50;99.90;;;;;;5086704;28;20556;-78
2022/07/10 12:22:05;;;;;;;6.50;2.63;;;;;;;;;;5089234;28;20425;-78
2022/07/10 12:24:31;;;;;;;7.30;2.40;;;16.40;99.90;;;;;;5082536;28;20429;-78
2022/07/10 12:26:58;;;;;;;6.53;1.95;;;;;;;;;;5064381;28;20977;-77
2022/07/10 12:29:24;;;;;;;4.63;1.90;;;;;;;;;;5108167;27;20491;-77
2022/07/10 12:31:55;;;;;;;6.28;1.98;;;17.20;99.90;;;;;;5089856;28;20479;-77
2022/07/10 12:34:37;;;;;;;8.00;2.10;;;17.10;99.90;;;;;;5082704;28;21046;-77
2022/07/10 12:37:10;;;;;;;6.20;2.25;;;;;;;;;;5118240;27;20435;-77
2022/07/10 12:39:49;;;;;;;6.10;2.20;;;;;;;;;;5066949;28;20439;-77
2022/07/10 12:42:33;;;;;;;6.57;2.43;;;16.80;99.90;;;;;;5079175;28;20430;-77
2022/07/10 12:45:10;;;;;;;7.32;2.40;;;;;;;;;;5113270;27;20593;-77
2022/07/10 12:47:46;;;;;;;6.13;2.30;;;;;;;;;;5066434;28;20657;-77
2022/07/10 12:50:12;;;;;;;5.63;2.30;;;;;;;;;;5085209;28;20422;-77
2022/07/10 12:52:39;;;;;;;9.38;2.63;;;;;;;;;;5084627;28;20425;-77
2022/07/10 12:55:25;;;;;;;7.35;2.20;;;;;;;;;;5074215;28;20480;-77
2022/07/10 12:57:58;;;;;;;8.02;2.70;;;;;;;;;;5079235;28;20426;-77
2022/07/10 13:00:25;;;;;;;6.63;2.47;;;16.60;99.90;;;;;;5093068;28;20424;-77
2022/07/10 13:02:58;;;;;;;6.35;2.33;;;;;;;;;;5062461;28;20421;-77
2022/07/10 13:05:33;;;;;;;7.57;2.53;;;;;;;;;;5071173;28;20410;-77
2022/07/10 13:08:16;;;;;;;6.70;2.10;;;;;;;;;;5074704;28;20839;-81
2022/07/10 13:10:43;;;;;;;5.82;2.30;;;;;;;;;;5105803;28;20467;-81
2022/07/10 13:13:18;;;;;;;5.88;2.30;;;;;;;;;;5108435;27;20455;-81
2022/07/10 13:15:46;;;;;;;6.00;2.50;;;16.60;99.90;;;;;;5120963;27;20967;-80
2022/07/10 13:18:17;;;;;;;7.83;2.80;;;;;;;;;;5050106;28;20540;-78
2022/07/10 13:20:43;;;;;;;9.70;2.55;;;;;;;;;;5101327;28;20421;-78
2022/07/10 13:23:09;;;;;;;5.65;2.30;;;;;;;;;;5076401;28;20424;-78
2022/07/10 13:25:36;;;;;;;10.60;3.17;;;;;;;;;;5096287;27;21056;-78
2022/07/10 13:28:02;;;;;;;5.82;2.30;;;17.00;99.90;;;;;;5088281;28;20425;-78
2022/07/10 13:30:29;;;;;;;5.80;2.17;;;;;;;;;;5081621;28;20718;-79
2022/07/10 13:32:55;;;;;;;6.90;2.53;;;;;;;;;;5065312;28;20416;-78
2022/07/10 13:35:21;;;;;;;8.05;2.25;;;;;;;;;;5087491;28;20429;-79
2022/07/10 13:37:47;;;;;;;7.13;2.30;;;;;;;;;;5076666;28;20938;-79
2022/07/10 13:40:13;;;;;;;5.63;2.20;;;;;;;;;;5101847;28;20443;-79
2022/07/10 13:42:39;;;;;;;7.13;2.28;;;17.00;99.90;;;;;;5081594;28;20433;-78
2022/07/10 13:45:05;;;;;;;7.27;2.20;;;17.20;99.90;;;;;;5071341;28;20430;-78
2022/07/10 13:47:31;;;;;;;6.15;3.08;;;;;;;;;;5073024;28;20420;-78
2022/07/10 13:49:58;;;;;;;8.23;2.22;;;;;;;;;;5092261;28;20915;-78
2022/07/10 13:52:23;;;;;;;5.93;2.10;;;18.00;99.90;;;;;;5087705;28;20432;-78
2022/07/10 13:54:49;;;;;;;6.43;1.90;;;18.20;99.90;;;;;;5053751;28;20423;-79
2022/07/10 13:57:15;;;;;;;7.25;2.03;;;18.20;99.90;;;;;;5069418;28;20424;-79
2022/07/10 13:59:41;;;;;;;7.28;2.10;;;;;;;;;;5056558;28;20484;-79
2022/07/10 14:02:07;;;;;;;6.30;2.13;;;18.90;99.90;;;;;;5069049;28;20422;-78
2022/07/10 14:04:32;;;;;;;6.78;2.45;;;18.80;99.90;;;;;;5056913;28;21195;-78
2022/07/10 14:06:58;;;;;;;7.37;2.00;;;18.90;99.90;;;;;;5083327;28;20410;-78
2022/07/10 14:09:24;;;;;;;5.30;2.13;;;18.90;99.90;;;;;;5072028;28;20920;-79
2022/07/10 14:11:50;;;;;;;8.77;2.50;;;19.10;99.90;;;;;;5113986;27;20450;-79
2022/07/10 14:14:17;;;;;;;6.28;1.70;;;;;;;;;;5077803;28;20414;-79
2022/07/10 14:16:43;;;;;;;5.50;2.08;;;;;;;;;;5071487;28;20473;-77
2022/07/10 14:19:09;;;;;;;9.47;3.77;;;;;;;;;;5088835;28;20417;-79
2022/07/10 14:21:37;;;;;;;6.15;3.13;;;18.80;99.90;;;;;;5082094;28;20441;-79
2022/07/10 14:24:04;;;;;;;5.65;1.60;;;18.80;99.90;;;;;;5055161;28;20399;-79
2022/07/10 14:26:31;;;;;;;5.32;1.80;;;;;;;;;;5054334;28;20419;-79